Al-Baha Domestic Airport

Airport
ICAO code: 
OEBA
IATA Code: 
ABT
Summary
ICAO Region: 
MID
Territory: 
Location: 
Al-Baha,
Serving: 
Al-Baha
Elevation: 
5486 ft
Coordinates: 
Aerial View: 
20° 17' 38.436" N, 41° 38' 24.072" E
Metar
Observation
OEBA 041100Z 11007KT CAVOK 24/02 Q1022 NOSIG
Station
Al Baha
Date/Time
2021-12-04 11:00:00
Wind direction
110°
Wind speed
07 kts
Lowest cloud amount
clouds and visibility OK
Temperature
24°C
Dew point
2°C
Humidity
23%
QNH
1022 hPa
Weather condition
n/a

Description

Al-Baha Domestic Airport is located 20 km northeast of Al-Baha, Saudi Arabia.

Climatology

Hot Desert Climate (Köppen climate classification BWh) - Hot desert climates are typically found in the subtropics where there is unbroken sunshine for the whole year due to the stable descending air and high pressure, little or no precipitation. Maximum temperatures of 40°C to 45°C are not uncommon, particularly during the warmer months of the year. During colder periods of the year, night-time temperatures can drop to freezing or below due to the exceptional radiation loss under the clear skies. However, very rarely do temperatures drop far below freezing.

Runways

Designator Length Width Surface Rops
7/25 3350 45 ASP Yes/Yes
Airport map: 
Aerial View: 

SKYbrary Partners:

Safety knowledge contributed by: